sensor_id;sensor_type;location;lat;lon;timestamp;P1;durP1;ratioP1;P2;durP2;ratioP2
813;SDS011;389;48.710;9.392;2023-12-04T00:01:51;41.70;;;16.23;;
813;SDS011;389;48.710;9.392;2023-12-04T00:04:17;39.87;;;16.80;;
813;SDS011;389;48.710;9.392;2023-12-04T00:06:42;30.47;;;14.37;;
813;SDS011;389;48.710;9.392;2023-12-04T00:09:08;29.97;;;12.37;;
813;SDS011;389;48.710;9.392;2023-12-04T00:11:34;26.57;;;12.23;;
813;SDS011;389;48.710;9.392;2023-12-04T00:14:00;28.67;;;13.23;;
813;SDS011;389;48.710;9.392;2023-12-04T00:16:26;25.00;;;11.87;;
813;SDS011;389;48.710;9.392;2023-12-04T00:18:52;29.97;;;13.43;;
813;SDS011;389;48.710;9.392;2023-12-04T00:21:17;31.00;;;13.90;;
813;SDS011;389;48.710;9.392;2023-12-04T00:23:43;29.00;;;13.00;;
813;SDS011;389;48.710;9.392;2023-12-04T00:26:08;25.87;;;13.00;;
813;SDS011;389;48.710;9.392;2023-12-04T00:28:37;31.83;;;12.70;;
813;SDS011;389;48.710;9.392;2023-12-04T00:31:03;29.50;;;12.77;;
813;SDS011;389;48.710;9.392;2023-12-04T00:33:28;29.07;;;11.97;;
813;SDS011;389;48.710;9.392;2023-12-04T00:35:54;21.37;;;10.80;;
813;SDS011;389;48.710;9.392;2023-12-04T00:38:19;26.97;;;12.77;;
813;SDS011;389;48.710;9.392;2023-12-04T00:40:45;25.90;;;12.17;;
813;SDS011;389;48.710;9.392;2023-12-04T00:43:11;26.23;;;13.37;;
813;SDS011;389;48.710;9.392;2023-12-04T00:45:36;19.63;;;11.90;;
813;SDS011;389;48.710;9.392;2023-12-04T00:48:02;28.67;;;12.17;;
813;SDS011;389;48.710;9.392;2023-12-04T00:50:28;24.97;;;11.60;;
813;SDS011;389;48.710;9.392;2023-12-04T00:52:53;26.33;;;12.27;;
813;SDS011;389;48.710;9.392;2023-12-04T00:55:19;31.30;;;11.30;;
813;SDS011;389;48.710;9.392;2023-12-04T00:57:45;31.23;;;12.83;;
813;SDS011;389;48.710;9.392;2023-12-04T01:00:11;27.27;;;13.03;;
813;SDS011;389;48.710;9.392;2023-12-04T01:02:37;27.47;;;12.77;;
813;SDS011;389;48.710;9.392;2023-12-04T01:05:02;30.77;;;13.13;;
813;SDS011;389;48.710;9.392;2023-12-04T01:07:28;27.30;;;12.77;;
813;SDS011;389;48.710;9.392;2023-12-04T01:09:54;28.03;;;12.07;;
813;SDS011;389;48.710;9.392;2023-12-04T01:12:20;22.97;;;11.67;;
813;SDS011;389;48.710;9.392;2023-12-04T01:14:46;26.70;;;12.40;;
813;SDS011;389;48.710;9.392;2023-12-04T01:17:11;26.13;;;11.93;;
813;SDS011;389;48.710;9.392;2023-12-04T01:19:37;25.87;;;12.93;;
813;SDS011;389;48.710;9.392;2023-12-04T01:22:05;32.03;;;12.80;;
813;SDS011;389;48.710;9.392;2023-12-04T01:24:30;28.57;;;12.27;;
813;SDS011;389;48.710;9.392;2023-12-04T01:26:56;25.40;;;13.20;;
813;SDS011;389;48.710;9.392;2023-12-04T01:29:21;31.33;;;14.10;;
813;SDS011;389;48.710;9.392;2023-12-04T01:31:47;27.90;;;12.93;;
813;SDS011;389;48.710;9.392;2023-12-04T01:34:13;26.63;;;12.80;;
813;SDS011;389;48.710;9.392;2023-12-04T01:36:41;33.03;;;13.30;;
813;SDS011;389;48.710;9.392;2023-12-04T01:39:07;23.27;;;11.70;;
813;SDS011;389;48.710;9.392;2023-12-04T01:41:32;27.70;;;12.03;;
813;SDS011;389;48.710;9.392;2023-12-04T01:43:58;23.67;;;12.60;;
813;SDS011;389;48.710;9.392;2023-12-04T01:46:23;28.10;;;12.57;;
813;SDS011;389;48.710;9.392;2023-12-04T01:48:49;24.87;;;12.23;;
813;SDS011;389;48.710;9.392;2023-12-04T01:51:15;29.43;;;13.37;;
813;SDS011;389;48.710;9.392;2023-12-04T01:53:43;29.13;;;13.43;;
813;SDS011;389;48.710;9.392;2023-12-04T01:56:09;28.73;;;14.13;;
813;SDS011;389;48.710;9.392;2023-12-04T01:58:35;31.43;;;15.63;;
813;SDS011;389;48.710;9.392;2023-12-04T02:01:02;32.20;;;15.23;;
813;SDS011;389;48.710;9.392;2023-12-04T02:03:29;35.20;;;14.17;;
813;SDS011;389;48.710;9.392;2023-12-04T02:05:55;31.33;;;15.07;;
813;SDS011;389;48.710;9.392;2023-12-04T02:08:24;32.77;;;15.17;;
813;SDS011;389;48.710;9.392;2023-12-04T02:10:50;32.10;;;15.60;;
813;SDS011;389;48.710;9.392;2023-12-04T02:13:16;33.30;;;15.90;;
813;SDS011;389;48.710;9.392;2023-12-04T02:15:42;34.07;;;15.30;;
813;SDS011;389;48.710;9.392;2023-12-04T02:18:07;34.03;;;16.70;;
813;SDS011;389;48.710;9.392;2023-12-04T02:20:34;34.97;;;16.17;;
813;SDS011;389;48.710;9.392;2023-12-04T02:23:03;32.50;;;16.37;;
813;SDS011;389;48.710;9.392;2023-12-04T02:25:29;42.77;;;18.40;;
813;SDS011;389;48.710;9.392;2023-12-04T02:27:56;35.00;;;16.90;;
813;SDS011;389;48.710;9.392;2023-12-04T02:30:24;37.93;;;17.20;;
813;SDS011;389;48.710;9.392;2023-12-04T02:32:51;40.20;;;17.33;;
813;SDS011;389;48.710;9.392;2023-12-04T02:35:22;35.40;;;16.90;;
813;SDS011;389;48.710;9.392;2023-12-04T02:37:49;30.60;;;16.43;;
813;SDS011;389;48.710;9.392;2023-12-04T02:40:16;33.50;;;15.63;;
813;SDS011;389;48.710;9.392;2023-12-04T02:42:42;37.87;;;17.40;;
813;SDS011;389;48.710;9.392;2023-12-04T02:45:07;28.83;;;14.90;;
813;SDS011;389;48.710;9.392;2023-12-04T02:47:33;31.03;;;15.53;;
813;SDS011;389;48.710;9.392;2023-12-04T02:49:59;32.37;;;16.20;;
813;SDS011;389;48.710;9.392;2023-12-04T02:52:24;33.93;;;15.60;;
813;SDS011;389;48.710;9.392;2023-12-04T02:54:50;29.87;;;14.20;;
813;SDS011;389;48.710;9.392;2023-12-04T02:57:15;28.57;;;15.20;;
813;SDS011;389;48.710;9.392;2023-12-04T02:59:42;28.13;;;13.87;;
813;SDS011;389;48.710;9.392;2023-12-04T03:02:07;27.33;;;14.63;;
813;SDS011;389;48.710;9.392;2023-12-04T03:04:33;23.90;;;13.43;;
813;SDS011;389;48.710;9.392;2023-12-04T03:07:00;26.13;;;14.40;;
813;SDS011;389;48.710;9.392;2023-12-04T03:09:26;30.10;;;13.77;;
813;SDS011;389;48.710;9.392;2023-12-04T03:11:51;28.37;;;15.30;;
813;SDS011;389;48.710;9.392;2023-12-04T03:14:17;30.67;;;14.30;;
813;SDS011;389;48.710;9.392;2023-12-04T03:16:42;26.30;;;13.43;;
813;SDS011;389;48.710;9.392;2023-12-04T03:19:08;29.40;;;14.40;;
813;SDS011;389;48.710;9.392;2023-12-04T03:21:33;32.27;;;14.13;;
813;SDS011;389;48.710;9.392;2023-12-04T03:23:59;29.20;;;13.87;;
813;SDS011;389;48.710;9.392;2023-12-04T03:26:25;29.40;;;13.00;;
813;SDS011;389;48.710;9.392;2023-12-04T03:28:50;30.80;;;15.03;;
813;SDS011;389;48.710;9.392;2023-12-04T03:31:16;27.77;;;13.70;;
813;SDS011;389;48.710;9.392;2023-12-04T03:33:41;29.87;;;12.80;;
813;SDS011;389;48.710;9.392;2023-12-04T03:36:07;31.90;;;14.43;;
813;SDS011;389;48.710;9.392;2023-12-04T03:38:33;29.77;;;14.27;;
813;SDS011;389;48.710;9.392;2023-12-04T03:40:58;34.37;;;15.93;;
813;SDS011;389;48.710;9.392;2023-12-04T03:43:24;32.00;;;15.10;;
813;SDS011;389;48.710;9.392;2023-12-04T03:45:50;33.70;;;15.10;;
813;SDS011;389;48.710;9.392;2023-12-04T03:48:15;29.97;;;14.10;;
813;SDS011;389;48.710;9.392;2023-12-04T03:50:41;22.80;;;11.40;;
813;SDS011;389;48.710;9.392;2023-12-04T03:53:06;31.40;;;14.67;;
813;SDS011;389;48.710;9.392;2023-12-04T03:55:32;29.43;;;13.00;;
813;SDS011;389;48.710;9.392;2023-12-04T03:57:58;25.37;;;12.83;;
813;SDS011;389;48.710;9.392;2023-12-04T04:00:24;30.50;;;13.20;;
813;SDS011;389;48.710;9.392;2023-12-04T04:02:49;27.17;;;12.47;;
813;SDS011;389;48.710;9.392;2023-12-04T04:05:15;29.60;;;12.27;;
813;SDS011;389;48.710;9.392;2023-12-04T04:07:41;16.27;;;9.00;;
813;SDS011;389;48.710;9.392;2023-12-04T04:10:07;16.50;;;8.90;;
813;SDS011;389;48.710;9.392;2023-12-04T04:12:33;19.87;;;9.60;;
813;SDS011;389;48.710;9.392;2023-12-04T04:14:59;17.40;;;8.73;;
813;SDS011;389;48.710;9.392;2023-12-04T04:17:24;19.07;;;10.03;;
813;SDS011;389;48.710;9.392;2023-12-04T04:19:54;22.20;;;10.30;;
813;SDS011;389;48.710;9.392;2023-12-04T04:22:20;18.73;;;9.03;;
813;SDS011;389;48.710;9.392;2023-12-04T04:24:46;20.27;;;10.20;;
813;SDS011;389;48.710;9.392;2023-12-04T04:27:12;21.17;;;10.67;;
813;SDS011;389;48.710;9.392;2023-12-04T04:29:38;25.90;;;11.37;;
813;SDS011;389;48.710;9.392;2023-12-04T04:32:04;31.37;;;13.67;;
813;SDS011;389;48.710;9.392;2023-12-04T04:34:30;27.37;;;12.90;;
813;SDS011;389;48.710;9.392;2023-12-04T04:36:55;23.17;;;11.93;;
813;SDS011;389;48.710;9.392;2023-12-04T04:39:21;30.23;;;12.83;;
813;SDS011;389;48.710;9.392;2023-12-04T04:41:47;25.70;;;12.67;;
813;SDS011;389;48.710;9.392;2023-12-04T04:44:12;27.43;;;12.80;;
813;SDS011;389;48.710;9.392;2023-12-04T04:46:38;26.90;;;12.73;;
813;SDS011;389;48.710;9.392;2023-12-04T04:49:03;30.00;;;12.53;;
813;SDS011;389;48.710;9.392;2023-12-04T04:51:31;26.93;;;12.50;;
813;SDS011;389;48.710;9.392;2023-12-04T04:53:58;25.70;;;14.43;;
813;SDS011;389;48.710;9.392;2023-12-04T04:56:23;30.00;;;12.37;;
813;SDS011;389;48.710;9.392;2023-12-04T04:58:49;26.77;;;12.40;;
813;SDS011;389;48.710;9.392;2023-12-04T05:01:14;20.90;;;11.87;;
813;SDS011;389;48.710;9.392;2023-12-04T05:03:40;22.20;;;12.70;;
813;SDS011;389;48.710;9.392;2023-12-04T05:06:06;26.57;;;14.07;;
813;SDS011;389;48.710;9.392;2023-12-04T05:08:32;25.90;;;13.00;;
813;SDS011;389;48.710;9.392;2023-12-04T05:10:57;26.30;;;13.50;;
813;SDS011;389;48.710;9.392;2023-12-04T05:13:23;25.60;;;12.97;;
813;SDS011;389;48.710;9.392;2023-12-04T05:15:48;26.17;;;13.20;;
813;SDS011;389;48.710;9.392;2023-12-04T05:18:14;31.87;;;13.33;;
813;SDS011;389;48.710;9.392;2023-12-04T05:20:40;30.47;;;14.97;;
813;SDS011;389;48.710;9.392;2023-12-04T05:23:05;29.67;;;14.17;;
813;SDS011;389;48.710;9.392;2023-12-04T05:25:31;27.80;;;13.90;;
813;SDS011;389;48.710;9.392;2023-12-04T05:27:56;24.07;;;12.60;;
813;SDS011;389;48.710;9.392;2023-12-04T05:30:22;32.70;;;15.80;;
813;SDS011;389;48.710;9.392;2023-12-04T05:32:48;24.37;;;13.97;;
813;SDS011;389;48.710;9.392;2023-12-04T05:35:14;33.47;;;14.20;;
813;SDS011;389;48.710;9.392;2023-12-04T05:37:40;26.30;;;13.10;;
813;SDS011;389;48.710;9.392;2023-12-04T05:40:06;30.73;;;13.53;;
813;SDS011;389;48.710;9.392;2023-12-04T05:42:32;25.67;;;14.17;;
813;SDS011;389;48.710;9.392;2023-12-04T05:44:58;31.57;;;14.40;;
813;SDS011;389;48.710;9.392;2023-12-04T05:47:25;25.67;;;14.33;;
813;SDS011;389;48.710;9.392;2023-12-04T05:49:51;24.53;;;14.67;;
813;SDS011;389;48.710;9.392;2023-12-04T05:52:16;22.93;;;12.67;;
813;SDS011;389;48.710;9.392;2023-12-04T05:54:42;28.47;;;13.93;;
813;SDS011;389;48.710;9.392;2023-12-04T05:57:08;34.57;;;13.70;;
813;SDS011;389;48.710;9.392;2023-12-04T05:59:33;23.83;;;11.60;;
813;SDS011;389;48.710;9.392;2023-12-04T06:01:59;18.30;;;9.67;;
813;SDS011;389;48.710;9.392;2023-12-04T06:04:24;14.50;;;8.60;;
813;SDS011;389;48.710;9.392;2023-12-04T06:06:50;17.13;;;8.47;;
813;SDS011;389;48.710;9.392;2023-12-04T06:09:15;21.00;;;9.70;;
813;SDS011;389;48.710;9.392;2023-12-04T06:11:41;16.40;;;8.20;;
813;SDS011;389;48.710;9.392;2023-12-04T06:14:07;19.83;;;9.20;;
813;SDS011;389;48.710;9.392;2023-12-04T06:16:33;21.40;;;10.73;;
813;SDS011;389;48.710;9.392;2023-12-04T06:18:58;20.47;;;9.70;;
813;SDS011;389;48.710;9.392;2023-12-04T06:21:24;16.73;;;9.03;;
813;SDS011;389;48.710;9.392;2023-12-04T06:23:50;18.27;;;9.13;;
813;SDS011;389;48.710;9.392;2023-12-04T06:26:16;20.90;;;8.80;;
813;SDS011;389;48.710;9.392;2023-12-04T06:28:42;22.23;;;8.67;;
813;SDS011;389;48.710;9.392;2023-12-04T06:31:09;19.50;;;9.50;;
813;SDS011;389;48.710;9.392;2023-12-04T06:33:35;18.93;;;8.93;;
813;SDS011;389;48.710;9.392;2023-12-04T06:36:01;20.50;;;8.33;;
813;SDS011;389;48.710;9.392;2023-12-04T06:38:27;18.70;;;8.97;;
813;SDS011;389;48.710;9.392;2023-12-04T06:40:58;20.47;;;8.70;;
813;SDS011;389;48.710;9.392;2023-12-04T06:43:24;19.00;;;9.47;;
813;SDS011;389;48.710;9.392;2023-12-04T06:45:50;21.30;;;10.43;;
813;SDS011;389;48.710;9.392;2023-12-04T06:48:16;15.57;;;8.97;;
813;SDS011;389;48.710;9.392;2023-12-04T06:50:42;21.80;;;9.63;;
813;SDS011;389;48.710;9.392;2023-12-04T06:53:08;20.97;;;10.07;;
813;SDS011;389;48.710;9.392;2023-12-04T06:55:33;23.00;;;10.00;;
813;SDS011;389;48.710;9.392;2023-12-04T06:57:59;17.70;;;9.80;;
813;SDS011;389;48.710;9.392;2023-12-04T07:00:24;23.17;;;10.27;;
813;SDS011;389;48.710;9.392;2023-12-04T07:02:50;16.13;;;8.10;;
813;SDS011;389;48.710;9.392;2023-12-04T07:05:16;18.27;;;9.03;;
813;SDS011;389;48.710;9.392;2023-12-04T07:07:43;20.27;;;9.60;;
813;SDS011;389;48.710;9.392;2023-12-04T07:10:09;21.80;;;9.30;;
813;SDS011;389;48.710;9.392;2023-12-04T07:12:39;18.30;;;9.77;;
813;SDS011;389;48.710;9.392;2023-12-04T07:15:08;16.67;;;9.60;;
813;SDS011;389;48.710;9.392;2023-12-04T07:17:35;19.53;;;9.90;;
813;SDS011;389;48.710;9.392;2023-12-04T07:20:01;15.73;;;8.57;;
813;SDS011;389;48.710;9.392;2023-12-04T07:22:27;17.90;;;9.03;;
813;SDS011;389;48.710;9.392;2023-12-04T07:24:52;17.13;;;8.90;;
813;SDS011;389;48.710;9.392;2023-12-04T07:27:18;18.73;;;9.03;;
813;SDS011;389;48.710;9.392;2023-12-04T07:29:43;16.70;;;8.20;;
813;SDS011;389;48.710;9.392;2023-12-04T07:32:09;17.27;;;9.03;;
813;SDS011;389;48.710;9.392;2023-12-04T07:34:34;18.07;;;9.80;;
813;SDS011;389;48.710;9.392;2023-12-04T07:37:00;23.03;;;9.80;;
813;SDS011;389;48.710;9.392;2023-12-04T07:39:25;21.83;;;9.30;;
813;SDS011;389;48.710;9.392;2023-12-04T07:41:51;19.10;;;8.30;;
813;SDS011;389;48.710;9.392;2023-12-04T07:44:17;22.37;;;9.00;;
813;SDS011;389;48.710;9.392;2023-12-04T07:46:43;17.57;;;8.60;;
813;SDS011;389;48.710;9.392;2023-12-04T07:49:08;20.50;;;10.57;;
813;SDS011;389;48.710;9.392;2023-12-04T07:51:34;17.13;;;8.37;;
813;SDS011;389;48.710;9.392;2023-12-04T07:54:00;17.60;;;9.07;;
813;SDS011;389;48.710;9.392;2023-12-04T07:56:26;17.70;;;9.63;;
813;SDS011;389;48.710;9.392;2023-12-04T07:58:51;18.50;;;9.07;;
813;SDS011;389;48.710;9.392;2023-12-04T08:01:17;25.60;;;9.13;;
813;SDS011;389;48.710;9.392;2023-12-04T08:03:42;14.43;;;7.83;;
813;SDS011;389;48.710;9.392;2023-12-04T08:06:08;17.83;;;8.77;;
813;SDS011;389;48.710;9.392;2023-12-04T08:08:34;20.30;;;9.93;;
813;SDS011;389;48.710;9.392;2023-12-04T08:10:59;19.70;;;9.67;;
813;SDS011;389;48.710;9.392;2023-12-04T08:13:25;18.70;;;9.70;;
813;SDS011;389;48.710;9.392;2023-12-04T08:15:50;27.27;;;10.70;;
813;SDS011;389;48.710;9.392;2023-12-04T08:18:16;18.37;;;9.70;;
813;SDS011;389;48.710;9.392;2023-12-04T08:20:42;16.57;;;9.50;;
813;SDS011;389;48.710;9.392;2023-12-04T08:23:07;17.23;;;10.03;;
813;SDS011;389;48.710;9.392;2023-12-04T08:25:33;13.93;;;8.70;;
813;SDS011;389;48.710;9.392;2023-12-04T08:28:01;21.03;;;10.67;;
813;SDS011;389;48.710;9.392;2023-12-04T08:30:27;20.10;;;11.10;;
813;SDS011;389;48.710;9.392;2023-12-04T08:32:52;20.23;;;10.00;;
813;SDS011;389;48.710;9.392;2023-12-04T08:35:18;19.70;;;10.17;;
813;SDS011;389;48.710;9.392;2023-12-04T08:37:44;17.77;;;10.10;;
813;SDS011;389;48.710;9.392;2023-12-04T08:40:10;17.00;;;9.43;;
813;SDS011;389;48.710;9.392;2023-12-04T08:42:37;23.40;;;9.53;;
813;SDS011;389;48.710;9.392;2023-12-04T08:45:03;21.73;;;10.97;;
813;SDS011;389;48.710;9.392;2023-12-04T08:47:30;17.33;;;9.87;;
813;SDS011;389;48.710;9.392;2023-12-04T08:49:56;15.40;;;9.37;;
813;SDS011;389;48.710;9.392;2023-12-04T08:52:22;17.27;;;10.13;;
813;SDS011;389;48.710;9.392;2023-12-04T08:54:47;18.17;;;9.73;;
813;SDS011;389;48.710;9.392;2023-12-04T08:57:13;20.43;;;10.70;;
813;SDS011;389;48.710;9.392;2023-12-04T08:59:39;19.57;;;10.07;;
813;SDS011;389;48.710;9.392;2023-12-04T09:02:04;21.10;;;9.67;;
813;SDS011;389;48.710;9.392;2023-12-04T09:04:30;26.23;;;10.97;;
813;SDS011;389;48.710;9.392;2023-12-04T09:06:56;21.10;;;10.00;;
813;SDS011;389;48.710;9.392;2023-12-04T09:09:22;23.73;;;11.50;;
813;SDS011;389;48.710;9.392;2023-12-04T09:11:47;16.40;;;9.07;;
813;SDS011;389;48.710;9.392;2023-12-04T09:14:13;23.90;;;12.40;;
813;SDS011;389;48.710;9.392;2023-12-04T09:16:39;23.00;;;13.50;;
813;SDS011;389;48.710;9.392;2023-12-04T09:19:05;38.50;;;16.50;;
813;SDS011;389;48.710;9.392;2023-12-04T09:21:30;35.63;;;18.00;;
813;SDS011;389;48.710;9.392;2023-12-04T09:23:56;35.80;;;17.03;;
813;SDS011;389;48.710;9.392;2023-12-04T09:26:21;32.70;;;15.93;;
813;SDS011;389;48.710;9.392;2023-12-04T09:28:48;39.57;;;19.70;;
813;SDS011;389;48.710;9.392;2023-12-04T09:31:13;21.60;;;12.77;;
813;SDS011;389;48.710;9.392;2023-12-04T09:33:39;26.40;;;14.30;;
813;SDS011;389;48.710;9.392;2023-12-04T09:36:04;23.13;;;12.17;;
813;SDS011;389;48.710;9.392;2023-12-04T09:38:30;26.80;;;12.63;;
813;SDS011;389;48.710;9.392;2023-12-04T09:40:58;21.17;;;11.80;;
813;SDS011;389;48.710;9.392;2023-12-04T09:43:26;23.33;;;12.00;;
813;SDS011;389;48.710;9.392;2023-12-04T09:45:53;26.23;;;13.57;;
813;SDS011;389;48.710;9.392;2023-12-04T09:48:18;21.20;;;11.90;;
813;SDS011;389;48.710;9.392;2023-12-04T09:50:46;20.93;;;11.47;;
813;SDS011;389;48.710;9.392;2023-12-04T09:53:12;20.90;;;12.20;;
813;SDS011;389;48.710;9.392;2023-12-04T09:55:38;18.70;;;11.40;;
813;SDS011;389;48.710;9.392;2023-12-04T09:58:05;28.80;;;12.73;;
813;SDS011;389;48.710;9.392;2023-12-04T10:00:30;21.20;;;10.67;;
813;SDS011;389;48.710;9.392;2023-12-04T10:02:57;30.10;;;14.60;;
813;SDS011;389;48.710;9.392;2023-12-04T10:05:24;21.50;;;11.30;;
813;SDS011;389;48.710;9.392;2023-12-04T10:07:50;19.50;;;11.10;;
813;SDS011;389;48.710;9.392;2023-12-04T10:10:15;22.23;;;10.87;;
813;SDS011;389;48.710;9.392;2023-12-04T10:12:42;22.50;;;12.40;;
813;SDS011;389;48.710;9.392;2023-12-04T10:15:08;21.90;;;11.07;;
813;SDS011;389;48.710;9.392;2023-12-04T10:17:36;17.43;;;10.50;;
813;SDS011;389;48.710;9.392;2023-12-04T10:20:06;19.27;;;11.17;;
813;SDS011;389;48.710;9.392;2023-12-04T10:22:40;18.63;;;10.90;;
813;SDS011;389;48.710;9.392;2023-12-04T10:25:17;23.63;;;12.13;;
813;SDS011;389;48.710;9.392;2023-12-04T10:27:45;22.97;;;12.00;;
813;SDS011;389;48.710;9.392;2023-12-04T10:30:28;27.37;;;12.23;;
813;SDS011;389;48.710;9.392;2023-12-04T10:33:02;25.47;;;11.73;;
813;SDS011;389;48.710;9.392;2023-12-04T10:35:30;20.47;;;11.10;;
813;SDS011;389;48.710;9.392;2023-12-04T10:37:57;20.23;;;11.27;;
813;SDS011;389;48.710;9.392;2023-12-04T10:40:23;17.50;;;10.77;;
813;SDS011;389;48.710;9.392;2023-12-04T10:45:41;16.23;;;10.70;;
813;SDS011;389;48.710;9.392;2023-12-04T10:48:09;17.50;;;11.40;;
813;SDS011;389;48.710;9.392;2023-12-04T10:50:42;19.83;;;11.50;;
813;SDS011;389;48.710;9.392;2023-12-04T10:53:15;20.20;;;11.17;;
813;SDS011;389;48.710;9.392;2023-12-04T10:55:42;21.70;;;11.67;;
813;SDS011;389;48.710;9.392;2023-12-04T10:58:10;23.47;;;11.40;;
813;SDS011;389;48.710;9.392;2023-12-04T11:00:44;20.40;;;11.07;;
813;SDS011;389;48.710;9.392;2023-12-04T11:03:15;17.80;;;11.27;;
813;SDS011;389;48.710;9.392;2023-12-04T11:05:53;21.30;;;12.23;;
813;SDS011;389;48.710;9.392;2023-12-04T11:08:21;24.33;;;12.20;;
813;SDS011;389;48.710;9.392;2023-12-04T11:13:34;23.97;;;13.20;;
813;SDS011;389;48.710;9.392;2023-12-04T11:16:04;21.47;;;12.40;;
813;SDS011;389;48.710;9.392;2023-12-04T11:18:48;20.63;;;12.03;;
813;SDS011;389;48.710;9.392;2023-12-04T11:21:35;20.00;;;11.47;;
813;SDS011;389;48.710;9.392;2023-12-04T11:24:03;20.57;;;13.10;;
813;SDS011;389;48.710;9.392;2023-12-04T11:26:30;18.70;;;12.30;;
813;SDS011;389;48.710;9.392;2023-12-04T11:28:56;19.77;;;12.30;;
813;SDS011;389;48.710;9.392;2023-12-04T11:31:22;22.67;;;14.00;;
813;SDS011;389;48.710;9.392;2023-12-04T11:33:49;21.30;;;13.47;;
813;SDS011;389;48.710;9.392;2023-12-04T11:36:14;20.70;;;12.10;;
813;SDS011;389;48.710;9.392;2023-12-04T11:38:44;21.33;;;13.37;;
813;SDS011;389;48.710;9.392;2023-12-04T11:41:21;20.57;;;12.80;;
813;SDS011;389;48.710;9.392;2023-12-04T11:43:48;20.30;;;12.10;;
813;SDS011;389;48.710;9.392;2023-12-04T11:46:18;24.30;;;13.80;;
813;SDS011;389;48.710;9.392;2023-12-04T11:48:48;22.93;;;13.90;;
813;SDS011;389;48.710;9.392;2023-12-04T11:51:15;22.90;;;14.00;;
813;SDS011;389;48.710;9.392;2023-12-04T11:54:01;22.97;;;13.67;;
813;SDS011;389;48.710;9.392;2023-12-04T11:56:29;24.37;;;13.03;;
813;SDS011;389;48.710;9.392;2023-12-04T11:58:55;23.10;;;12.30;;
813;SDS011;389;48.710;9.392;2023-12-04T12:01:28;19.67;;;12.87;;
813;SDS011;389;48.710;9.392;2023-12-04T12:03:58;23.60;;;11.90;;
813;SDS011;389;48.710;9.392;2023-12-04T12:06:24;24.07;;;12.70;;
813;SDS011;389;48.710;9.392;2023-12-04T12:08:50;21.90;;;12.10;;
813;SDS011;389;48.710;9.392;2023-12-04T12:11:16;20.27;;;11.70;;
813;SDS011;389;48.710;9.392;2023-12-04T12:13:42;22.90;;;13.27;;
813;SDS011;389;48.710;9.392;2023-12-04T12:16:07;25.50;;;13.40;;
813;SDS011;389;48.710;9.392;2023-12-04T12:18:36;21.90;;;12.60;;
813;SDS011;389;48.710;9.392;2023-12-04T12:21:02;26.70;;;12.57;;
813;SDS011;389;48.710;9.392;2023-12-04T12:23:28;24.97;;;12.43;;
813;SDS011;389;48.710;9.392;2023-12-04T12:25:54;21.40;;;13.07;;
813;SDS011;389;48.710;9.392;2023-12-04T12:28:19;20.07;;;12.90;;
813;SDS011;389;48.710;9.392;2023-12-04T12:30:45;21.80;;;12.07;;
813;SDS011;389;48.710;9.392;2023-12-04T12:33:15;61.27;;;28.83;;
813;SDS011;389;48.710;9.392;2023-12-04T12:35:41;146.93;;;69.10;;
813;SDS011;389;48.710;9.392;2023-12-04T12:38:06;61.70;;;29.43;;
813;SDS011;389;48.710;9.392;2023-12-04T12:40:32;98.87;;;41.60;;
813;SDS011;389;48.710;9.392;2023-12-04T12:43:05;42.43;;;21.53;;
813;SDS011;389;48.710;9.392;2023-12-04T12:45:44;32.87;;;16.53;;
813;SDS011;389;48.710;9.392;2023-12-04T12:48:13;39.20;;;19.10;;
813;SDS011;389;48.710;9.392;2023-12-04T12:50:39;29.10;;;17.70;;
813;SDS011;389;48.710;9.392;2023-12-04T12:53:06;31.77;;;17.00;;
813;SDS011;389;48.710;9.392;2023-12-04T12:55:31;38.67;;;21.27;;
813;SDS011;389;48.710;9.392;2023-12-04T12:57:57;31.27;;;18.63;;
813;SDS011;389;48.710;9.392;2023-12-04T13:00:23;30.03;;;15.30;;
813;SDS011;389;48.710;9.392;2023-12-04T13:02:51;32.30;;;16.30;;
813;SDS011;389;48.710;9.392;2023-12-04T13:05:18;32.10;;;17.60;;
813;SDS011;389;48.710;9.392;2023-12-04T13:07:44;33.67;;;18.40;;
813;SDS011;389;48.710;9.392;2023-12-04T13:10:10;36.73;;;19.57;;
813;SDS011;389;48.710;9.392;2023-12-04T13:12:36;31.30;;;18.07;;
813;SDS011;389;48.710;9.392;2023-12-04T13:15:02;34.50;;;17.07;;
813;SDS011;389;48.710;9.392;2023-12-04T13:17:28;33.20;;;16.83;;
813;SDS011;389;48.710;9.392;2023-12-04T13:19:54;33.37;;;19.17;;
813;SDS011;389;48.710;9.392;2023-12-04T13:22:20;27.90;;;15.37;;
813;SDS011;389;48.710;9.392;2023-12-04T13:24:45;27.87;;;14.60;;
813;SDS011;389;48.710;9.392;2023-12-04T13:27:11;29.93;;;16.93;;
813;SDS011;389;48.710;9.392;2023-12-04T13:29:36;35.93;;;16.80;;
813;SDS011;389;48.710;9.392;2023-12-04T13:32:02;35.57;;;16.90;;
813;SDS011;389;48.710;9.392;2023-12-04T13:34:29;30.30;;;16.20;;
813;SDS011;389;48.710;9.392;2023-12-04T13:36:54;33.63;;;15.17;;
813;SDS011;389;48.710;9.392;2023-12-04T13:39:21;26.70;;;14.67;;
813;SDS011;389;48.710;9.392;2023-12-04T13:42:04;25.73;;;13.83;;
813;SDS011;389;48.710;9.392;2023-12-04T13:44:48;25.90;;;13.00;;
813;SDS011;389;48.710;9.392;2023-12-04T13:47:13;27.73;;;14.73;;
813;SDS011;389;48.710;9.392;2023-12-04T13:49:40;32.00;;;15.37;;
813;SDS011;389;48.710;9.392;2023-12-04T13:52:06;31.03;;;13.73;;
813;SDS011;389;48.710;9.392;2023-12-04T13:54:33;30.40;;;16.13;;
813;SDS011;389;48.710;9.392;2023-12-04T13:57:13;27.70;;;14.60;;
813;SDS011;389;48.710;9.392;2023-12-04T13:59:58;29.83;;;16.53;;
813;SDS011;389;48.710;9.392;2023-12-04T14:02:24;29.67;;;15.90;;
813;SDS011;389;48.710;9.392;2023-12-04T14:04:50;28.50;;;14.60;;
813;SDS011;389;48.710;9.392;2023-12-04T14:07:16;28.03;;;14.40;;
813;SDS011;389;48.710;9.392;2023-12-04T14:09:42;33.37;;;15.50;;
813;SDS011;389;48.710;9.392;2023-12-04T14:12:09;23.33;;;14.50;;
813;SDS011;389;48.710;9.392;2023-12-04T14:14:35;26.30;;;14.20;;
813;SDS011;389;48.710;9.392;2023-12-04T14:17:02;33.80;;;18.67;;
813;SDS011;389;48.710;9.392;2023-12-04T14:19:29;35.87;;;19.23;;
813;SDS011;389;48.710;9.392;2023-12-04T14:21:55;33.83;;;20.70;;
813;SDS011;389;48.710;9.392;2023-12-04T14:24:20;30.10;;;15.67;;
813;SDS011;389;48.710;9.392;2023-12-04T14:26:46;31.40;;;14.67;;
813;SDS011;389;48.710;9.392;2023-12-04T14:29:13;30.33;;;16.60;;
813;SDS011;389;48.710;9.392;2023-12-04T14:31:38;30.03;;;15.30;;
813;SDS011;389;48.710;9.392;2023-12-04T14:34:05;38.23;;;18.27;;
813;SDS011;389;48.710;9.392;2023-12-04T14:36:30;34.93;;;17.20;;
813;SDS011;389;48.710;9.392;2023-12-04T14:38:57;31.73;;;15.90;;
813;SDS011;389;48.710;9.392;2023-12-04T14:41:23;28.03;;;14.87;;
813;SDS011;389;48.710;9.392;2023-12-04T14:43:48;32.23;;;16.97;;
813;SDS011;389;48.710;9.392;2023-12-04T14:46:14;40.13;;;18.97;;
813;SDS011;389;48.710;9.392;2023-12-04T14:48:39;36.63;;;18.53;;
813;SDS011;389;48.710;9.392;2023-12-04T14:51:06;30.03;;;15.80;;
813;SDS011;389;48.710;9.392;2023-12-04T14:53:32;29.70;;;16.67;;
813;SDS011;389;48.710;9.392;2023-12-04T14:56:28;31.23;;;17.77;;
813;SDS011;389;48.710;9.392;2023-12-04T14:59:12;30.87;;;17.50;;
813;SDS011;389;48.710;9.392;2023-12-04T15:02:10;34.67;;;15.83;;
813;SDS011;389;48.710;9.392;2023-12-04T15:04:50;40.93;;;22.97;;
813;SDS011;389;48.710;9.392;2023-12-04T15:07:42;33.40;;;17.50;;
813;SDS011;389;48.710;9.392;2023-12-04T15:10:27;31.27;;;15.90;;
813;SDS011;389;48.710;9.392;2023-12-04T15:12:53;33.77;;;16.97;;
813;SDS011;389;48.710;9.392;2023-12-04T15:15:30;33.70;;;16.40;;
813;SDS011;389;48.710;9.392;2023-12-04T15:17:56;33.10;;;17.17;;
813;SDS011;389;48.710;9.392;2023-12-04T15:20:41;33.20;;;14.70;;
813;SDS011;389;48.710;9.392;2023-12-04T15:23:07;30.80;;;15.90;;